sensor_id;sensor_type;location;lat;lon;timestamp;P1;durP1;ratioP1;P2;durP2;ratioP2
41861;SDS011;27537;57.134;-2.136;2023-05-10T00:00:56;4.25;;;1.52;;
41861;SDS011;27537;57.134;-2.136;2023-05-10T00:03:25;5.40;;;1.80;;
41861;SDS011;27537;57.134;-2.136;2023-05-10T00:05:53;3.50;;;1.40;;
41861;SDS011;27537;57.134;-2.136;2023-05-10T00:08:25;6.32;;;1.90;;
41861;SDS011;27537;57.134;-2.136;2023-05-10T00:10:53;6.25;;;1.92;;
41861;SDS011;27537;57.134;-2.136;2023-05-10T00:13:21;6.43;;;2.22;;
41861;SDS011;27537;57.134;-2.136;2023-05-10T00:15:48;5.82;;;1.80;;
41861;SDS011;27537;57.134;-2.136;2023-05-10T00:18:15;5.90;;;1.95;;
41861;SDS011;27537;57.134;-2.136;2023-05-10T00:20:56;4.63;;;1.75;;
41861;SDS011;27537;57.134;-2.136;2023-05-10T00:23:24;9.45;;;2.42;;
41861;SDS011;27537;57.134;-2.136;2023-05-10T00:25:52;4.72;;;1.80;;
41861;SDS011;27537;57.134;-2.136;2023-05-10T00:28:32;4.18;;;1.67;;
41861;SDS011;27537;57.134;-2.136;2023-05-10T00:31:13;5.57;;;1.83;;
41861;SDS011;27537;57.134;-2.136;2023-05-10T00:33:41;3.88;;;1.30;;
41861;SDS011;27537;57.134;-2.136;2023-05-10T00:36:22;5.88;;;2.13;;
41861;SDS011;27537;57.134;-2.136;2023-05-10T00:38:58;5.70;;;2.00;;
41861;SDS011;27537;57.134;-2.136;2023-05-10T00:41:29;5.63;;;1.92;;
41861;SDS011;27537;57.134;-2.136;2023-05-10T00:44:08;5.07;;;1.90;;
41861;SDS011;27537;57.134;-2.136;2023-05-10T00:46:49;4.22;;;1.50;;
41861;SDS011;27537;57.134;-2.136;2023-05-10T00:49:19;4.07;;;1.48;;
41861;SDS011;27537;57.134;-2.136;2023-05-10T00:52:01;5.85;;;1.83;;
41861;SDS011;27537;57.134;-2.136;2023-05-10T00:54:42;4.82;;;1.80;;
41861;SDS011;27537;57.134;-2.136;2023-05-10T00:57:23;6.40;;;1.67;;
41861;SDS011;27537;57.134;-2.136;2023-05-10T00:59:55;4.45;;;1.63;;
41861;SDS011;27537;57.134;-2.136;2023-05-10T01:02:35;4.45;;;1.70;;
41861;SDS011;27537;57.134;-2.136;2023-05-10T01:05:16;4.47;;;1.70;;
41861;SDS011;27537;57.134;-2.136;2023-05-10T01:07:44;4.82;;;1.55;;
41861;SDS011;27537;57.134;-2.136;2023-05-10T01:10:13;3.97;;;1.58;;
41861;SDS011;27537;57.134;-2.136;2023-05-10T01:12:42;4.97;;;1.85;;
41861;SDS011;27537;57.134;-2.136;2023-05-10T01:15:10;5.78;;;1.95;;
41861;SDS011;27537;57.134;-2.136;2023-05-10T01:17:39;6.38;;;2.22;;
41861;SDS011;27537;57.134;-2.136;2023-05-10T01:20:09;7.10;;;2.65;;
41861;SDS011;27537;57.134;-2.136;2023-05-10T01:22:56;8.52;;;3.13;;
41861;SDS011;27537;57.134;-2.136;2023-05-10T01:37:39;7.20;;;2.40;;
41861;SDS011;27537;57.134;-2.136;2023-05-10T01:40:26;7.63;;;3.03;;
41861;SDS011;27537;57.134;-2.136;2023-05-10T01:43:01;7.10;;;2.40;;
41861;SDS011;27537;57.134;-2.136;2023-05-10T01:48:10;11.25;;;4.03;;
41861;SDS011;27537;57.134;-2.136;2023-05-10T01:50:54;11.90;;;3.63;;
41861;SDS011;27537;57.134;-2.136;2023-05-10T01:53:36;10.40;;;3.53;;
41861;SDS011;27537;57.134;-2.136;2023-05-10T01:56:05;9.23;;;3.72;;
41861;SDS011;27537;57.134;-2.136;2023-05-10T01:58:48;14.05;;;4.95;;
41861;SDS011;27537;57.134;-2.136;2023-05-10T02:01:31;9.40;;;3.70;;
41861;SDS011;27537;57.134;-2.136;2023-05-10T02:04:15;14.43;;;3.83;;
41861;SDS011;27537;57.134;-2.136;2023-05-10T02:06:57;10.45;;;4.22;;
41861;SDS011;27537;57.134;-2.136;2023-05-10T02:09:38;11.20;;;3.83;;
41861;SDS011;27537;57.134;-2.136;2023-05-10T02:12:20;8.55;;;3.13;;
41861;SDS011;27537;57.134;-2.136;2023-05-10T02:15:04;10.73;;;3.38;;
41861;SDS011;27537;57.134;-2.136;2023-05-10T02:17:47;8.55;;;3.33;;
41861;SDS011;27537;57.134;-2.136;2023-05-10T02:20:28;11.98;;;4.07;;
41861;SDS011;27537;57.134;-2.136;2023-05-10T02:23:11;11.32;;;4.32;;
41861;SDS011;27537;57.134;-2.136;2023-05-10T02:25:53;9.88;;;3.97;;
41861;SDS011;27537;57.134;-2.136;2023-05-10T02:28:27;10.73;;;4.18;;
41861;SDS011;27537;57.134;-2.136;2023-05-10T02:30:56;9.80;;;3.65;;
41861;SDS011;27537;57.134;-2.136;2023-05-10T02:33:40;11.52;;;4.70;;
41861;SDS011;27537;57.134;-2.136;2023-05-10T02:36:23;14.82;;;4.93;;
41861;SDS011;27537;57.134;-2.136;2023-05-10T02:39:04;14.73;;;4.85;;
41861;SDS011;27537;57.134;-2.136;2023-05-10T02:41:50;17.27;;;5.28;;
41861;SDS011;27537;57.134;-2.136;2023-05-10T02:44:32;13.52;;;5.45;;
41861;SDS011;27537;57.134;-2.136;2023-05-10T02:47:16;9.32;;;3.78;;
41861;SDS011;27537;57.134;-2.136;2023-05-10T02:49:45;9.90;;;4.30;;
41861;SDS011;27537;57.134;-2.136;2023-05-10T02:52:27;10.85;;;3.80;;
41861;SDS011;27537;57.134;-2.136;2023-05-10T02:55:16;9.43;;;3.42;;
41861;SDS011;27537;57.134;-2.136;2023-05-10T02:58:01;9.73;;;4.10;;
41861;SDS011;27537;57.134;-2.136;2023-05-10T03:00:43;9.55;;;4.10;;
41861;SDS011;27537;57.134;-2.136;2023-05-10T03:03:23;10.80;;;4.18;;
41861;SDS011;27537;57.134;-2.136;2023-05-10T03:06:04;11.68;;;4.32;;
41861;SDS011;27537;57.134;-2.136;2023-05-10T03:08:44;13.57;;;4.55;;
41861;SDS011;27537;57.134;-2.136;2023-05-10T03:11:36;14.48;;;4.22;;
41861;SDS011;27537;57.134;-2.136;2023-05-10T03:17:15;8.57;;;3.03;;
41861;SDS011;27537;57.134;-2.136;2023-05-10T03:20:04;21.92;;;4.78;;
41861;SDS011;27537;57.134;-2.136;2023-05-10T03:22:49;10.05;;;3.17;;
41861;SDS011;27537;57.134;-2.136;2023-05-10T03:25:28;9.32;;;2.78;;
41861;SDS011;27537;57.134;-2.136;2023-05-10T03:28:11;10.70;;;2.65;;
41861;SDS011;27537;57.134;-2.136;2023-05-10T03:30:54;15.23;;;3.03;;
41861;SDS011;27537;57.134;-2.136;2023-05-10T03:33:23;15.52;;;3.95;;
41861;SDS011;27537;57.134;-2.136;2023-05-10T03:35:50;11.18;;;3.42;;
41861;SDS011;27537;57.134;-2.136;2023-05-10T03:38:31;13.13;;;3.35;;
41861;SDS011;27537;57.134;-2.136;2023-05-10T03:41:04;11.25;;;3.28;;
41861;SDS011;27537;57.134;-2.136;2023-05-10T03:43:44;9.13;;;3.28;;
41861;SDS011;27537;57.134;-2.136;2023-05-10T03:46:25;15.10;;;3.05;;
41861;SDS011;27537;57.134;-2.136;2023-05-10T03:49:06;12.82;;;3.90;;
41861;SDS011;27537;57.134;-2.136;2023-05-10T03:51:46;8.52;;;2.95;;
41861;SDS011;27537;57.134;-2.136;2023-05-10T03:54:27;11.52;;;3.45;;
41861;SDS011;27537;57.134;-2.136;2023-05-10T03:57:07;11.43;;;3.58;;
41861;SDS011;27537;57.134;-2.136;2023-05-10T03:59:48;9.00;;;3.15;;
41861;SDS011;27537;57.134;-2.136;2023-05-10T04:02:29;9.13;;;3.25;;
41861;SDS011;27537;57.134;-2.136;2023-05-10T04:05:10;9.95;;;3.90;;
41861;SDS011;27537;57.134;-2.136;2023-05-10T04:07:51;10.77;;;3.08;;
41861;SDS011;27537;57.134;-2.136;2023-05-10T04:10:31;10.30;;;3.60;;
41861;SDS011;27537;57.134;-2.136;2023-05-10T04:13:12;11.68;;;3.55;;
41861;SDS011;27537;57.134;-2.136;2023-05-10T04:15:53;8.98;;;3.53;;
41861;SDS011;27537;57.134;-2.136;2023-05-10T04:18:34;20.80;;;4.32;;
41861;SDS011;27537;57.134;-2.136;2023-05-10T04:21:14;13.23;;;3.88;;
41861;SDS011;27537;57.134;-2.136;2023-05-10T04:23:55;8.40;;;2.70;;
41861;SDS011;27537;57.134;-2.136;2023-05-10T04:26:36;16.58;;;3.70;;
41861;SDS011;27537;57.134;-2.136;2023-05-10T04:29:16;10.48;;;2.70;;
41861;SDS011;27537;57.134;-2.136;2023-05-10T04:31:57;6.35;;;2.03;;
41861;SDS011;27537;57.134;-2.136;2023-05-10T04:34:37;18.05;;;3.25;;
41861;SDS011;27537;57.134;-2.136;2023-05-10T04:37:18;9.98;;;2.33;;
41861;SDS011;27537;57.134;-2.136;2023-05-10T04:40:00;15.60;;;2.95;;
41861;SDS011;27537;57.134;-2.136;2023-05-10T04:42:40;10.00;;;2.90;;
41861;SDS011;27537;57.134;-2.136;2023-05-10T04:45:21;5.47;;;1.75;;
41861;SDS011;27537;57.134;-2.136;2023-05-10T04:48:02;11.82;;;2.63;;
41861;SDS011;27537;57.134;-2.136;2023-05-10T04:50:43;11.93;;;3.20;;
41861;SDS011;27537;57.134;-2.136;2023-05-10T04:53:24;6.25;;;1.92;;
41861;SDS011;27537;57.134;-2.136;2023-05-10T04:56:04;7.15;;;2.15;;
41861;SDS011;27537;57.134;-2.136;2023-05-10T04:58:45;6.60;;;1.52;;
41861;SDS011;27537;57.134;-2.136;2023-05-10T05:01:26;6.75;;;2.10;;
41861;SDS011;27537;57.134;-2.136;2023-05-10T05:04:07;6.05;;;2.22;;
41861;SDS011;27537;57.134;-2.136;2023-05-10T05:06:47;6.22;;;2.38;;
41861;SDS011;27537;57.134;-2.136;2023-05-10T05:09:28;9.25;;;2.33;;
41861;SDS011;27537;57.134;-2.136;2023-05-10T05:12:08;8.07;;;2.10;;
41861;SDS011;27537;57.134;-2.136;2023-05-10T05:14:53;6.93;;;1.95;;
41861;SDS011;27537;57.134;-2.136;2023-05-10T05:17:22;8.73;;;1.95;;
41861;SDS011;27537;57.134;-2.136;2023-05-10T05:19:51;6.28;;;2.00;;
41861;SDS011;27537;57.134;-2.136;2023-05-10T05:22:18;4.68;;;1.75;;
41861;SDS011;27537;57.134;-2.136;2023-05-10T05:24:55;6.38;;;1.83;;
41861;SDS011;27537;57.134;-2.136;2023-05-10T05:27:23;11.75;;;2.20;;
41861;SDS011;27537;57.134;-2.136;2023-05-10T05:29:53;10.55;;;2.55;;
41861;SDS011;27537;57.134;-2.136;2023-05-10T05:32:21;5.30;;;2.00;;
41861;SDS011;27537;57.134;-2.136;2023-05-10T05:34:49;11.75;;;2.75;;
41861;SDS011;27537;57.134;-2.136;2023-05-10T05:37:30;8.35;;;2.08;;
41861;SDS011;27537;57.134;-2.136;2023-05-10T05:40:14;8.82;;;2.63;;
41861;SDS011;27537;57.134;-2.136;2023-05-10T05:42:56;6.22;;;2.20;;
41861;SDS011;27537;57.134;-2.136;2023-05-10T05:45:36;4.30;;;1.67;;
41861;SDS011;27537;57.134;-2.136;2023-05-10T05:48:17;7.45;;;2.55;;
41861;SDS011;27537;57.134;-2.136;2023-05-10T05:50:57;5.55;;;1.98;;
41861;SDS011;27537;57.134;-2.136;2023-05-10T05:53:41;4.80;;;1.90;;
41861;SDS011;27537;57.134;-2.136;2023-05-10T05:56:24;6.55;;;2.70;;
41861;SDS011;27537;57.134;-2.136;2023-05-10T05:59:04;9.23;;;2.95;;
41861;SDS011;27537;57.134;-2.136;2023-05-10T06:01:33;7.95;;;2.78;;
41861;SDS011;27537;57.134;-2.136;2023-05-10T06:04:14;6.93;;;2.45;;
41861;SDS011;27537;57.134;-2.136;2023-05-10T06:06:42;7.85;;;2.95;;
41861;SDS011;27537;57.134;-2.136;2023-05-10T06:09:12;7.60;;;3.28;;
41861;SDS011;27537;57.134;-2.136;2023-05-10T06:11:52;8.13;;;2.92;;
41861;SDS011;27537;57.134;-2.136;2023-05-10T06:14:33;14.02;;;4.25;;
41861;SDS011;27537;57.134;-2.136;2023-05-10T06:17:01;10.35;;;4.40;;
41861;SDS011;27537;57.134;-2.136;2023-05-10T06:19:44;16.25;;;4.38;;
41861;SDS011;27537;57.134;-2.136;2023-05-10T06:22:24;9.20;;;3.17;;
41861;SDS011;27537;57.134;-2.136;2023-05-10T06:25:05;12.98;;;4.65;;
41861;SDS011;27537;57.134;-2.136;2023-05-10T06:27:46;7.80;;;3.05;;
41861;SDS011;27537;57.134;-2.136;2023-05-10T06:30:27;12.45;;;4.72;;
41861;SDS011;27537;57.134;-2.136;2023-05-10T06:33:08;9.90;;;3.50;;
41861;SDS011;27537;57.134;-2.136;2023-05-10T06:35:49;14.73;;;4.03;;
41861;SDS011;27537;57.134;-2.136;2023-05-10T06:38:29;9.38;;;3.67;;
41861;SDS011;27537;57.134;-2.136;2023-05-10T06:41:10;9.77;;;3.47;;
41861;SDS011;27537;57.134;-2.136;2023-05-10T06:43:51;10.50;;;3.88;;
41861;SDS011;27537;57.134;-2.136;2023-05-10T06:46:31;16.23;;;4.05;;
41861;SDS011;27537;57.134;-2.136;2023-05-10T06:49:12;8.75;;;3.20;;
41861;SDS011;27537;57.134;-2.136;2023-05-10T06:51:53;12.38;;;3.78;;
41861;SDS011;27537;57.134;-2.136;2023-05-10T06:54:33;16.30;;;4.32;;
41861;SDS011;27537;57.134;-2.136;2023-05-10T06:57:14;8.93;;;3.40;;
41861;SDS011;27537;57.134;-2.136;2023-05-10T06:59:54;8.70;;;3.15;;
41861;SDS011;27537;57.134;-2.136;2023-05-10T07:02:36;9.88;;;3.58;;
41861;SDS011;27537;57.134;-2.136;2023-05-10T07:05:16;14.00;;;3.95;;
41861;SDS011;27537;57.134;-2.136;2023-05-10T07:07:57;18.30;;;4.32;;
41861;SDS011;27537;57.134;-2.136;2023-05-10T07:10:38;9.80;;;4.18;;
41861;SDS011;27537;57.134;-2.136;2023-05-10T07:13:18;6.53;;;2.55;;
41861;SDS011;27537;57.134;-2.136;2023-05-10T07:15:59;6.75;;;2.67;;
41861;SDS011;27537;57.134;-2.136;2023-05-10T07:18:42;8.38;;;2.90;;
41861;SDS011;27537;57.134;-2.136;2023-05-10T07:21:08;6.10;;;2.22;;
41861;SDS011;27537;57.134;-2.136;2023-05-10T07:23:37;8.38;;;2.90;;
41861;SDS011;27537;57.134;-2.136;2023-05-10T07:26:17;10.48;;;3.65;;
41861;SDS011;27537;57.134;-2.136;2023-05-10T07:28:46;8.52;;;2.55;;
41861;SDS011;27537;57.134;-2.136;2023-05-10T07:31:13;7.25;;;2.83;;
41861;SDS011;27537;57.134;-2.136;2023-05-10T07:33:40;6.22;;;2.38;;
41861;SDS011;27537;57.134;-2.136;2023-05-10T07:36:07;10.07;;;3.78;;
41861;SDS011;27537;57.134;-2.136;2023-05-10T07:38:36;8.07;;;2.65;;
41861;SDS011;27537;57.134;-2.136;2023-05-10T07:41:06;7.70;;;2.47;;
41861;SDS011;27537;57.134;-2.136;2023-05-10T07:43:33;9.48;;;3.00;;
41861;SDS011;27537;57.134;-2.136;2023-05-10T07:46:00;9.07;;;2.67;;
41861;SDS011;27537;57.134;-2.136;2023-05-10T07:48:28;7.45;;;2.58;;
41861;SDS011;27537;57.134;-2.136;2023-05-10T07:50:57;15.00;;;3.88;;
41861;SDS011;27537;57.134;-2.136;2023-05-10T07:53:25;10.68;;;3.30;;
41861;SDS011;27537;57.134;-2.136;2023-05-10T07:55:59;11.88;;;3.72;;
41861;SDS011;27537;57.134;-2.136;2023-05-10T07:58:39;7.20;;;2.47;;
41861;SDS011;27537;57.134;-2.136;2023-05-10T08:01:07;9.45;;;2.72;;
41861;SDS011;27537;57.134;-2.136;2023-05-10T08:03:37;8.40;;;2.83;;
41861;SDS011;27537;57.134;-2.136;2023-05-10T08:06:04;14.32;;;2.80;;
41861;SDS011;27537;57.134;-2.136;2023-05-10T08:08:32;8.25;;;3.15;;
41861;SDS011;27537;57.134;-2.136;2023-05-10T08:11:03;9.40;;;3.42;;
41861;SDS011;27537;57.134;-2.136;2023-05-10T08:13:30;7.65;;;2.50;;
41861;SDS011;27537;57.134;-2.136;2023-05-10T08:15:59;10.07;;;3.60;;
41861;SDS011;27537;57.134;-2.136;2023-05-10T08:18:26;11.60;;;4.00;;
41861;SDS011;27537;57.134;-2.136;2023-05-10T08:20:53;4.78;;;2.00;;
41861;SDS011;27537;57.134;-2.136;2023-05-10T08:23:21;9.73;;;2.80;;
41861;SDS011;27537;57.134;-2.136;2023-05-10T08:25:48;7.35;;;2.70;;
41861;SDS011;27537;57.134;-2.136;2023-05-10T08:28:15;7.38;;;2.97;;
41861;SDS011;27537;57.134;-2.136;2023-05-10T08:30:46;21.10;;;5.20;;
41861;SDS011;27537;57.134;-2.136;2023-05-10T08:33:14;8.10;;;3.28;;
41861;SDS011;27537;57.134;-2.136;2023-05-10T08:35:42;9.00;;;3.45;;
41861;SDS011;27537;57.134;-2.136;2023-05-10T08:38:10;7.75;;;2.53;;
41861;SDS011;27537;57.134;-2.136;2023-05-10T08:40:39;7.97;;;3.22;;
41861;SDS011;27537;57.134;-2.136;2023-05-10T08:43:10;13.18;;;4.22;;
41861;SDS011;27537;57.134;-2.136;2023-05-10T08:45:51;6.97;;;2.65;;
41861;SDS011;27537;57.134;-2.136;2023-05-10T08:48:20;11.25;;;4.25;;
41861;SDS011;27537;57.134;-2.136;2023-05-10T08:50:53;9.02;;;3.20;;
41861;SDS011;27537;57.134;-2.136;2023-05-10T08:53:24;10.30;;;3.40;;
41861;SDS011;27537;57.134;-2.136;2023-05-10T08:55:53;12.60;;;3.95;;
41861;SDS011;27537;57.134;-2.136;2023-05-10T08:58:21;14.27;;;4.40;;
41861;SDS011;27537;57.134;-2.136;2023-05-10T09:00:48;8.70;;;3.80;;
41861;SDS011;27537;57.134;-2.136;2023-05-10T09:03:25;8.27;;;2.92;;
41861;SDS011;27537;57.134;-2.136;2023-05-10T09:05:53;7.07;;;3.08;;
41861;SDS011;27537;57.134;-2.136;2023-05-10T09:08:23;7.40;;;2.97;;
41861;SDS011;27537;57.134;-2.136;2023-05-10T09:10:56;8.23;;;3.78;;
41861;SDS011;27537;57.134;-2.136;2023-05-10T09:13:24;9.18;;;2.92;;
41861;SDS011;27537;57.134;-2.136;2023-05-10T09:15:51;8.55;;;3.95;;
41861;SDS011;27537;57.134;-2.136;2023-05-10T09:18:20;7.55;;;2.97;;
41861;SDS011;27537;57.134;-2.136;2023-05-10T09:20:53;8.48;;;2.72;;
41861;SDS011;27537;57.134;-2.136;2023-05-10T09:23:21;8.43;;;2.97;;
41861;SDS011;27537;57.134;-2.136;2023-05-10T09:25:48;8.95;;;3.80;;
41861;SDS011;27537;57.134;-2.136;2023-05-10T09:28:33;8.52;;;3.55;;
41861;SDS011;27537;57.134;-2.136;2023-05-10T09:31:01;7.93;;;3.25;;
41861;SDS011;27537;57.134;-2.136;2023-05-10T09:33:28;7.63;;;2.72;;
41861;SDS011;27537;57.134;-2.136;2023-05-10T09:35:55;6.05;;;2.10;;
41861;SDS011;27537;57.134;-2.136;2023-05-10T09:38:48;6.63;;;2.63;;
41861;SDS011;27537;57.134;-2.136;2023-05-10T09:41:18;9.00;;;3.90;;
41861;SDS011;27537;57.134;-2.136;2023-05-10T09:43:55;7.70;;;3.13;;
41861;SDS011;27537;57.134;-2.136;2023-05-10T09:46:23;6.43;;;2.70;;
41861;SDS011;27537;57.134;-2.136;2023-05-10T09:48:52;10.07;;;3.78;;
41861;SDS011;27537;57.134;-2.136;2023-05-10T09:51:22;7.32;;;2.92;;
41861;SDS011;27537;57.134;-2.136;2023-05-10T09:56:41;7.07;;;2.78;;
41861;SDS011;27537;57.134;-2.136;2023-05-10T09:59:10;8.70;;;3.08;;
41861;SDS011;27537;57.134;-2.136;2023-05-10T10:01:38;7.15;;;2.65;;
41861;SDS011;27537;57.134;-2.136;2023-05-10T10:04:06;7.28;;;2.63;;
41861;SDS011;27537;57.134;-2.136;2023-05-10T10:06:37;8.05;;;3.08;;
41861;SDS011;27537;57.134;-2.136;2023-05-10T10:09:05;9.90;;;4.10;;
41861;SDS011;27537;57.134;-2.136;2023-05-10T10:11:38;10.65;;;3.05;;
41861;SDS011;27537;57.134;-2.136;2023-05-10T10:14:06;6.45;;;2.45;;
41861;SDS011;27537;57.134;-2.136;2023-05-10T10:16:33;8.32;;;3.35;;
41861;SDS011;27537;57.134;-2.136;2023-05-10T10:19:00;7.28;;;2.83;;
41861;SDS011;27537;57.134;-2.136;2023-05-10T10:21:28;8.75;;;2.90;;
41861;SDS011;27537;57.134;-2.136;2023-05-10T10:23:55;8.00;;;3.33;;
41861;SDS011;27537;57.134;-2.136;2023-05-10T10:26:23;11.45;;;4.47;;
41861;SDS011;27537;57.134;-2.136;2023-05-10T10:28:56;9.25;;;3.55;;
41861;SDS011;27537;57.134;-2.136;2023-05-10T10:31:43;7.53;;;3.03;;
41861;SDS011;27537;57.134;-2.136;2023-05-10T10:34:21;11.05;;;3.67;;
41861;SDS011;27537;57.134;-2.136;2023-05-10T10:36:56;8.98;;;3.05;;
41861;SDS011;27537;57.134;-2.136;2023-05-10T10:39:24;8.48;;;3.47;;
41861;SDS011;27537;57.134;-2.136;2023-05-10T10:41:54;8.63;;;3.22;;
41861;SDS011;27537;57.134;-2.136;2023-05-10T10:44:33;8.80;;;3.38;;
41861;SDS011;27537;57.134;-2.136;2023-05-10T10:52:21;11.32;;;3.90;;
41861;SDS011;27537;57.134;-2.136;2023-05-10T10:54:49;8.55;;;3.00;;
41861;SDS011;27537;57.134;-2.136;2023-05-10T10:57:19;8.57;;;2.92;;
41861;SDS011;27537;57.134;-2.136;2023-05-10T10:59:49;7.45;;;3.08;;
41861;SDS011;27537;57.134;-2.136;2023-05-10T11:02:42;7.07;;;2.60;;
41861;SDS011;27537;57.134;-2.136;2023-05-10T11:11:14;9.80;;;3.22;;
41861;SDS011;27537;57.134;-2.136;2023-05-10T11:13:42;8.05;;;3.38;;
41861;SDS011;27537;57.134;-2.136;2023-05-10T11:18:58;10.80;;;3.80;;
41861;SDS011;27537;57.134;-2.136;2023-05-10T11:21:30;9.20;;;4.10;;
41861;SDS011;27537;57.134;-2.136;2023-05-10T11:23:59;7.78;;;3.30;;
41861;SDS011;27537;57.134;-2.136;2023-05-10T11:26:36;9.23;;;3.67;;
41861;SDS011;27537;57.134;-2.136;2023-05-10T11:29:04;9.98;;;4.00;;
41861;SDS011;27537;57.134;-2.136;2023-05-10T11:31:45;8.73;;;3.78;;
41861;SDS011;27537;57.134;-2.136;2023-05-10T11:34:24;9.07;;;3.28;;
41861;SDS011;27537;57.134;-2.136;2023-05-10T11:37:04;11.02;;;4.28;;
41861;SDS011;27537;57.134;-2.136;2023-05-10T11:39:32;9.90;;;4.00;;
41861;SDS011;27537;57.134;-2.136;2023-05-10T11:41:59;7.60;;;3.20;;
41861;SDS011;27537;57.134;-2.136;2023-05-10T11:44:30;8.77;;;3.92;;
41861;SDS011;27537;57.134;-2.136;2023-05-10T11:46:59;11.15;;;4.30;;
41861;SDS011;27537;57.134;-2.136;2023-05-10T11:49:29;10.75;;;5.47;;
41861;SDS011;27537;57.134;-2.136;2023-05-10T11:52:03;12.27;;;5.55;;
41861;SDS011;27537;57.134;-2.136;2023-05-10T11:54:34;10.40;;;5.03;;
41861;SDS011;27537;57.134;-2.136;2023-05-10T11:57:04;10.77;;;5.55;;
41861;SDS011;27537;57.134;-2.136;2023-05-10T11:59:34;12.60;;;5.88;;
41861;SDS011;27537;57.134;-2.136;2023-05-10T12:02:01;10.70;;;5.57;;
41861;SDS011;27537;57.134;-2.136;2023-05-10T12:04:31;11.27;;;5.38;;
41861;SDS011;27537;57.134;-2.136;2023-05-10T12:07:00;12.90;;;5.63;;
41861;SDS011;27537;57.134;-2.136;2023-05-10T12:09:27;10.32;;;5.28;;
41861;SDS011;27537;57.134;-2.136;2023-05-10T12:12:08;14.20;;;6.82;;
41861;SDS011;27537;57.134;-2.136;2023-05-10T12:14:36;10.68;;;4.72;;
41861;SDS011;27537;57.134;-2.136;2023-05-10T12:17:03;10.95;;;5.05;;
41861;SDS011;27537;57.134;-2.136;2023-05-10T12:19:36;11.77;;;6.15;;
41861;SDS011;27537;57.134;-2.136;2023-05-10T12:22:07;11.00;;;5.75;;
41861;SDS011;27537;57.134;-2.136;2023-05-10T12:24:37;12.75;;;6.20;;
41861;SDS011;27537;57.134;-2.136;2023-05-10T12:27:05;12.05;;;4.95;;
41861;SDS011;27537;57.134;-2.136;2023-05-10T12:29:34;11.00;;;5.55;;
41861;SDS011;27537;57.134;-2.136;2023-05-10T12:32:01;12.27;;;5.72;;
41861;SDS011;27537;57.134;-2.136;2023-05-10T12:34:32;16.60;;;6.32;;
41861;SDS011;27537;57.134;-2.136;2023-05-10T12:37:04;10.73;;;5.13;;
41861;SDS011;27537;57.134;-2.136;2023-05-10T12:39:40;12.25;;;5.82;;
41861;SDS011;27537;57.134;-2.136;2023-05-10T12:42:09;11.45;;;5.15;;
41861;SDS011;27537;57.134;-2.136;2023-05-10T12:44:36;11.23;;;5.15;;
41861;SDS011;27537;57.134;-2.136;2023-05-10T12:47:03;14.50;;;7.00;;
41861;SDS011;27537;57.134;-2.136;2023-05-10T12:49:30;13.55;;;7.05;;
41861;SDS011;27537;57.134;-2.136;2023-05-10T12:51:57;11.70;;;6.20;;
41861;SDS011;27537;57.134;-2.136;2023-05-10T12:54:24;17.00;;;7.72;;
41861;SDS011;27537;57.134;-2.136;2023-05-10T12:56:51;12.00;;;5.30;;
41861;SDS011;27537;57.134;-2.136;2023-05-10T12:59:18;16.98;;;6.07;;
41861;SDS011;27537;57.134;-2.136;2023-05-10T13:01:45;12.55;;;6.10;;
41861;SDS011;27537;57.134;-2.136;2023-05-10T13:04:12;15.48;;;7.45;;
41861;SDS011;27537;57.134;-2.136;2023-05-10T13:06:39;12.85;;;6.13;;
41861;SDS011;27537;57.134;-2.136;2023-05-10T13:09:05;13.52;;;5.60;;
41861;SDS011;27537;57.134;-2.136;2023-05-10T13:11:32;19.75;;;8.18;;
41861;SDS011;27537;57.134;-2.136;2023-05-10T13:13:59;15.88;;;7.90;;
41861;SDS011;27537;57.134;-2.136;2023-05-10T13:16:26;15.02;;;8.23;;
41861;SDS011;27537;57.134;-2.136;2023-05-10T13:18:53;14.45;;;7.32;;
41861;SDS011;27537;57.134;-2.136;2023-05-10T13:21:20;13.95;;;5.95;;
41861;SDS011;27537;57.134;-2.136;2023-05-10T13:23:47;18.65;;;9.13;;
41861;SDS011;27537;57.134;-2.136;2023-05-10T13:26:14;15.60;;;7.60;;
41861;SDS011;27537;57.134;-2.136;2023-05-10T13:28:41;13.00;;;7.15;;
41861;SDS011;27537;57.134;-2.136;2023-05-10T13:31:08;17.55;;;8.02;;
41861;SDS011;27537;57.134;-2.136;2023-05-10T13:33:35;15.52;;;6.72;;
41861;SDS011;27537;57.134;-2.136;2023-05-10T13:36:02;18.40;;;6.47;;
41861;SDS011;27537;57.134;-2.136;2023-05-10T13:38:28;13.43;;;5.68;;
41861;SDS011;27537;57.134;-2.136;2023-05-10T13:40:55;13.85;;;6.05;;
41861;SDS011;27537;57.134;-2.136;2023-05-10T13:43:23;12.82;;;5.30;;
41861;SDS011;27537;57.134;-2.136;2023-05-10T13:45:50;15.85;;;6.25;;
41861;SDS011;27537;57.134;-2.136;2023-05-10T13:48:17;14.30;;;5.82;;
41861;SDS011;27537;57.134;-2.136;2023-05-10T13:50:43;15.35;;;6.68;;
41861;SDS011;27537;57.134;-2.136;2023-05-10T13:53:10;18.83;;;6.55;;
41861;SDS011;27537;57.134;-2.136;2023-05-10T13:55:37;12.45;;;5.63;;
41861;SDS011;27537;57.134;-2.136;2023-05-10T13:58:04;15.20;;;6.18;;
41861;SDS011;27537;57.134;-2.136;2023-05-10T14:00:31;14.05;;;5.75;;
41861;SDS011;27537;57.134;-2.136;2023-05-10T14:02:58;12.35;;;5.03;;
41861;SDS011;27537;57.134;-2.136;2023-05-10T14:05:25;15.07;;;5.20;;
41861;SDS011;27537;57.134;-2.136;2023-05-10T14:07:52;14.57;;;5.93;;
41861;SDS011;27537;57.134;-2.136;2023-05-10T14:10:20;14.75;;;6.38;;
41861;SDS011;27537;57.134;-2.136;2023-05-10T14:12:46;15.98;;;5.97;;
41861;SDS011;27537;57.134;-2.136;2023-05-10T14:15:14;13.07;;;5.72;;
41861;SDS011;27537;57.134;-2.136;2023-05-10T14:17:55;15.02;;;6.63;;
41861;SDS011;27537;57.134;-2.136;2023-05-10T14:20:22;13.65;;;6.55;;
41861;SDS011;27537;57.134;-2.136;2023-05-10T14:22:48;13.25;;;6.38;;
41861;SDS011;27537;57.134;-2.136;2023-05-10T14:25:15;13.55;;;5.28;;
41861;SDS011;27537;57.134;-2.136;2023-05-10T14:27:43;12.93;;;5.50;;
41861;SDS011;27537;57.134;-2.136;2023-05-10T14:30:10;13.02;;;5.13;;
41861;SDS011;27537;57.134;-2.136;2023-05-10T14:32:37;11.02;;;4.40;;
41861;SDS011;27537;57.134;-2.136;2023-05-10T14:35:04;9.70;;;3.83;;
41861;SDS011;27537;57.134;-2.136;2023-05-10T14:37:32;11.32;;;4.30;;
41861;SDS011;27537;57.134;-2.136;2023-05-10T14:39:59;12.65;;;4.07;;
41861;SDS011;27537;57.134;-2.136;2023-05-10T14:42:26;10.48;;;3.65;;
41861;SDS011;27537;57.134;-2.136;2023-05-10T14:44:54;7.25;;;2.75;;
41861;SDS011;27537;57.134;-2.136;2023-05-10T14:47:20;11.02;;;2.80;;
41861;SDS011;27537;57.134;-2.136;2023-05-10T14:49:47;13.48;;;2.78;;
41861;SDS011;27537;57.134;-2.136;2023-05-10T14:52:14;10.60;;;3.50;;
41861;SDS011;27537;57.134;-2.136;2023-05-10T14:54:41;9.00;;;3.10;;
41861;SDS011;27537;57.134;-2.136;2023-05-10T14:57:08;11.63;;;2.47;;
41861;SDS011;27537;57.134;-2.136;2023-05-10T14:59:35;8.73;;;2.38;;
41861;SDS011;27537;57.134;-2.136;2023-05-10T15:12:40;11.23;;;3.30;;
41861;SDS011;27537;57.134;-2.136;2023-05-10T15:15:07;7.40;;;2.38;;
41861;SDS011;27537;57.134;-2.136;2023-05-10T15:17:34;11.80;;;3.33;;
41861;SDS011;27537;57.134;-2.136;2023-05-10T15:20:01;9.95;;;2.80;;
41861;SDS011;27537;57.134;-2.136;2023-05-10T15:22:30;8.65;;;2.83;;
41861;SDS011;27537;57.134;-2.136;2023-05-10T15:24:59;10.63;;;3.35;;
41861;SDS011;27537;57.134;-2.136;2023-05-10T15:27:26;11.25;;;3.78;;
41861;SDS011;27537;57.134;-2.136;2023-05-10T15:29:53;8.60;;;3.10;;
41861;SDS011;27537;57.134;-2.136;2023-05-10T15:32:20;12.55;;;4.35;;
41861;SDS011;27537;57.134;-2.136;2023-05-10T15:34:47;13.98;;;5.13;;
41861;SDS011;27537;57.134;-2.136;2023-05-10T15:37:14;10.25;;;3.50;;
41861;SDS011;27537;57.134;-2.136;2023-05-10T15:39:41;12.55;;;4.82;;
41861;SDS011;27537;57.134;-2.136;2023-05-10T15:42:07;12.15;;;4.40;;
41861;SDS011;27537;57.134;-2.136;2023-05-10T15:44:34;9.98;;;3.67;;
41861;SDS011;27537;57.134;-2.136;2023-05-10T15:47:01;10.77;;;4.15;;
41861;SDS011;27537;57.134;-2.136;2023-05-10T15:49:32;13.95;;;5.18;;